Terminal Aerodrome Forecast
Issued by NWS

Home | Current Version | Previous Version | Text Only | Print | Product List | Glossary On
Versions: 1 2 3 4 5 6 7 8 9 10 11 12 13 14 15 16 17
000
FTUS43 KOAX 242300 RRA
TAFSNY
TAF
KSNY 242346Z 2500/2524 30011KT P6SM VCSH FEW070 SCT110
     FM250300 23008KT P6SM SCT200
     FM251800 07009KT P6SM SCT100=

USA.gov is the U.S. government's official web portal to all federal, state and local government web resources and services.